Time;durP1;ratioP1;P1;durP2;ratioP2;P2;SDS_P1;SDS_P2;PMS_P1;PMS_P2;Temp;Humidity;BMP_temperature;BMP_pressure;BME280_temperature;BME280_humidity;BME280_pressure;Samples;Min_cycle;Max_cycle;Signal;HPM_P1;HPM_P2
2022/06/26 04:01:04;;;;;;;7.70;5.30;;;16.90;99.90;;;;;;6230266;22;21265;-82
2022/06/26 04:04:08;;;;;;;8.25;5.28;;;16.90;99.90;;;;;;6256495;22;20016;-85
2022/06/26 04:07:08;;;;;;;;;;;;;;;;;;;;;
2022/06/26 04:09:37;;;;;;;7.60;5.78;;;16.90;99.90;;;;;;6214592;23;20087;-82
2022/06/26 04:12:03;;;;;;;8.07;5.72;;;16.90;99.90;;;;;;6190038;23;20140;-83
2022/06/26 04:14:36;;;;;;;10.10;6.35;;;16.80;99.90;;;;;;6190713;23;20071;-82
2022/06/26 04:17:02;;;;;;;8.77;6.22;;;16.80;99.90;;;;;;6172198;22;20059;-81
2022/06/26 04:20:09;;;;;;;8.35;6.35;;;16.80;99.90;;;;;;6251814;22;20008;-81
2022/06/26 04:22:35;;;;;;;8.05;5.90;;;16.80;99.90;;;;;;6250331;22;20078;-82
2022/06/26 04:25:18;;;;;;;8.63;6.32;;;16.80;99.90;;;;;;6226909;22;20016;-81
2022/06/26 04:27:44;;;;;;;11.35;7.47;;;16.80;99.90;;;;;;6226804;22;20047;-80
2022/06/26 04:30:11;;;;;;;9.93;7.03;;;16.80;99.90;;;;;;6226383;22;20388;-81
2022/06/26 04:32:36;;;;;;;10.98;7.28;;;16.80;99.90;;;;;;6226428;22;20433;-82
2022/06/26 04:35:18;;;;;;;12.57;8.48;;;16.80;99.90;;;;;;6226062;22;20022;-84
2022/06/26 04:38:12;;;;;;;;;;;;;;;;;;;;;
2022/06/26 04:40:47;;;;;;;13.23;8.27;;;16.90;99.90;;;;;;6250737;22;20012;-81
2022/06/26 04:43:13;;;;;;;11.73;8.68;;;16.90;99.90;;;;;;6227140;22;20382;-83
2022/06/26 04:45:44;;;;;;;11.07;8.50;;;17.00;99.90;;;;;;6252781;22;20083;-83
2022/06/26 04:51:54;;;;;;;15.40;9.88;;;17.00;99.90;;;;;;6285935;22;20062;-80
2022/06/26 04:57:35;;;;;;;16.92;10.40;;;17.00;99.90;;;;;;6185298;23;20082;-82
2022/06/26 05:00:01;;;;;;;18.30;10.90;;;17.10;99.90;;;;;;6160169;23;20020;-82
2022/06/26 05:02:58;;;;;;;15.13;11.45;;;17.10;99.90;;;;;;6235322;22;20490;-83
2022/06/26 05:05:57;;;;;;;18.20;11.63;;;17.10;99.90;;;;;;6278399;22;20007;-82
2022/06/26 05:08:47;;;;;;;18.63;12.25;;;17.10;99.90;;;;;;6226486;22;20374;-80
2022/06/26 05:15:05;;;;;;;19.90;13.60;;;17.10;99.90;;;;;;6278347;22;20090;-81
2022/06/26 05:17:30;;;;;;;21.92;14.65;;;17.10;99.90;;;;;;6184608;23;20021;-83
2022/06/26 05:19:56;;;;;;;24.40;16.55;;;17.10;99.90;;;;;;6184774;23;20107;-82
2022/06/26 05:22:22;;;;;;;23.25;16.45;;;17.10;99.90;;;;;;6184408;23;20025;-83
2022/06/26 05:24:58;;;;;;;25.17;17.50;;;17.10;99.90;;;;;;6135067;23;20347;-82
2022/06/26 05:27:23;;;;;;;25.48;17.65;;;17.10;99.90;;;;;;6184477;23;20335;-80
2022/06/26 05:29:50;;;;;;;26.98;17.83;;;17.10;99.90;;;;;;6134859;23;20037;-83
2022/06/26 05:32:16;;;;;;;27.23;18.15;;;17.10;99.90;;;;;;6184291;23;20100;-83
2022/06/26 05:34:42;;;;;;;31.65;19.63;;;17.10;99.90;;;;;;6159168;23;20436;-83
2022/06/26 05:37:07;;;;;;;35.47;19.50;;;17.10;99.90;;;;;;6184235;23;20033;-82
2022/06/26 05:39:33;;;;;;;26.67;18.48;;;17.10;99.90;;;;;;6159428;23;20021;-81
2022/06/26 05:41:59;;;;;;;26.17;17.77;;;17.10;99.90;;;;;;6159188;23;20017;-82
2022/06/26 05:44:24;;;;;;;29.13;17.63;;;17.10;99.90;;;;;;6159559;23;20012;-82
2022/06/26 05:46:50;;;;;;;26.73;17.58;;;17.10;99.90;;;;;;6159463;23;20013;-82
2022/06/26 05:49:16;;;;;;;30.35;18.95;;;17.10;99.90;;;;;;6235257;22;20414;-81
2022/06/26 05:51:41;;;;;;;27.20;18.25;;;17.10;99.90;;;;;;6250559;22;20441;-82
2022/06/26 05:54:07;;;;;;;28.02;17.95;;;17.20;99.90;;;;;;6278072;22;20011;-82
2022/06/26 05:56:33;;;;;;;24.52;17.08;;;17.20;99.90;;;;;;6225683;22;20015;-84
2022/06/26 05:58:59;;;;;;;25.95;17.38;;;17.20;99.90;;;;;;6225199;22;20048;-82
2022/06/26 06:01:24;;;;;;;27.00;17.60;;;17.20;99.90;;;;;;6277521;22;20018;-81
2022/06/26 06:03:50;;;;;;;26.95;16.90;;;17.30;99.90;;;;;;6250430;22;20019;-83
2022/06/26 06:06:16;;;;;;;25.25;16.25;;;17.30;99.90;;;;;;6278163;22;20444;-82
2022/06/26 06:08:42;;;;;;;27.23;16.88;;;17.20;99.90;;;;;;6251033;22;20338;-83
2022/06/26 06:11:08;;;;;;;24.92;16.55;;;17.30;99.90;;;;;;6288234;22;20080;-83
2022/06/26 06:13:33;;;;;;;28.23;18.20;;;17.30;99.90;;;;;;6281297;22;20022;-81
2022/06/26 06:15:59;;;;;;;29.55;17.35;;;17.30;99.90;;;;;;6308982;22;20437;-80
2022/06/26 06:18:25;;;;;;;27.05;17.27;;;17.20;99.90;;;;;;6308684;22;20057;-83
2022/06/26 06:20:51;;;;;;;26.70;17.55;;;17.20;99.90;;;;;;6281369;22;20082;-83
2022/06/26 06:23:16;;;;;;;27.08;17.38;;;17.20;99.90;;;;;;6281285;22;20043;-84
2022/06/26 06:25:42;;;;;;;27.63;16.65;;;17.20;99.90;;;;;;6309051;22;20015;-81
2022/06/26 06:28:08;;;;;;;27.23;17.83;;;17.20;99.90;;;;;;6309472;22;20095;-83
2022/06/26 06:30:34;;;;;;;26.10;17.77;;;17.20;99.90;;;;;;6281496;22;20095;-82
2022/06/26 06:33:00;;;;;;;28.38;18.83;;;17.20;99.90;;;;;;6281592;22;20072;-83
2022/06/26 06:35:25;;;;;;;28.55;18.23;;;17.20;99.90;;;;;;6308871;22;20011;-81
2022/06/26 06:37:51;;;;;;;30.17;19.05;;;17.20;99.90;;;;;;6281364;22;20429;-81
2022/06/26 06:40:16;;;;;;;30.95;18.15;;;17.20;99.90;;;;;;6280721;22;20007;-83
2022/06/26 06:42:42;;;;;;;29.67;18.70;;;17.30;99.90;;;;;;6281029;22;20023;-81
2022/06/26 06:45:09;;;;;;;30.83;19.73;;;17.20;99.90;;;;;;6281648;22;20090;-80
2022/06/26 06:47:36;;;;;;;30.10;19.17;;;17.30;99.90;;;;;;6281454;22;20015;-85
2022/06/26 06:50:02;;;;;;;30.80;18.38;;;17.30;99.90;;;;;;6281992;22;20090;-82
2022/06/26 06:52:28;;;;;;;26.15;17.40;;;17.30;99.90;;;;;;6300415;22;20096;-81
2022/06/26 06:54:56;;;;;;;27.20;18.30;;;17.30;99.90;;;;;;6306875;22;20031;-84
2022/06/26 06:58:24;;;;;;;;;;;;;;;;;;;;;
2022/06/26 07:00:45;;;;;;;26.67;18.52;;;17.30;99.90;;;;;;6302914;22;20011;-84
2022/06/26 07:03:11;;;;;;;25.88;18.10;;;17.30;99.90;;;;;;6308899;22;20082;-83
2022/06/26 07:05:36;;;;;;;27.08;17.50;;;17.40;99.90;;;;;;6281255;22;20011;-81
2022/06/26 07:08:02;;;;;;;28.02;17.58;;;17.50;99.90;;;;;;6308467;22;20015;-81
2022/06/26 07:10:28;;;;;;;25.25;17.15;;;17.50;99.90;;;;;;6282621;22;20015;-83
2022/06/26 07:12:58;;;;;;;27.50;17.20;;;17.70;99.90;;;;;;6310085;22;20418;-83
2022/06/26 07:15:25;;;;;;;26.90;16.17;;;17.80;99.90;;;;;;6309010;22;20061;-82
2022/06/26 07:17:50;;;;;;;26.75;16.77;;;17.90;99.90;;;;;;6308864;22;20015;-83
2022/06/26 07:20:16;;;;;;;24.27;15.40;;;17.90;99.90;;;;;;6308092;22;20019;-81
2022/06/26 07:22:43;;;;;;;22.60;15.80;;;17.90;99.90;;;;;;6310521;22;20090;-82
2022/06/26 07:25:08;;;;;;;23.77;16.27;;;18.00;99.90;;;;;;6308751;22;20007;-81
2022/06/26 07:27:36;;;;;;;19.40;14.30;;;18.10;99.90;;;;;;6309280;22;20092;-84
2022/06/26 07:30:03;;;;;;;21.95;13.55;;;18.20;99.90;;;;;;6283535;22;20372;-85
2022/06/26 07:32:28;;;;;;;15.27;10.48;;;18.30;99.90;;;;;;6283119;22;20090;-84
2022/06/26 07:34:54;;;;;;;11.05;7.93;;;18.40;99.90;;;;;;6310650;22;20350;-83
2022/06/26 07:37:20;;;;;;;6.80;4.72;;;18.40;99.90;;;;;;6284593;22;20051;-84
2022/06/26 07:39:46;;;;;;;7.20;3.55;;;18.40;99.90;;;;;;6308974;22;20023;-83
2022/06/26 07:42:12;;;;;;;7.43;3.78;;;18.40;99.90;;;;;;6301635;22;20015;-81
2022/06/26 07:44:38;;;;;;;5.65;3.80;;;18.30;99.90;;;;;;6344783;22;20347;-83
2022/06/26 07:47:03;;;;;;;8.43;4.95;;;18.30;99.90;;;;;;6345237;22;20010;-81
2022/06/26 07:49:29;;;;;;;9.93;5.07;;;18.30;99.90;;;;;;6319232;22;20021;-86
2022/06/26 07:51:55;;;;;;;8.00;5.90;;;18.20;99.90;;;;;;6314254;22;20010;-85
2022/06/26 07:54:21;;;;;;;7.22;5.53;;;18.20;99.90;;;;;;6340030;22;20007;-82
2022/06/26 07:56:49;;;;;;;10.40;5.85;;;18.20;99.90;;;;;;6314097;22;20042;-82
2022/06/26 07:59:14;;;;;;;10.10;6.28;;;18.20;99.90;;;;;;6341458;22;20503;-84
2022/06/26 08:01:41;;;;;;;9.32;6.30;;;18.10;99.90;;;;;;6341377;22;20060;-83
2022/06/26 08:04:07;;;;;;;9.23;6.38;;;18.00;99.90;;;;;;6341910;22;20007;-82
2022/06/26 08:06:33;;;;;;;9.68;7.20;;;18.00;99.90;;;;;;6341286;22;20011;-85
2022/06/26 08:08:59;;;;;;;10.20;6.57;;;18.00;99.90;;;;;;6313828;22;20006;-82
2022/06/26 08:11:24;;;;;;;8.85;6.32;;;18.10;99.90;;;;;;6314157;22;20002;-84
2022/06/26 08:13:50;;;;;;;9.02;5.90;;;18.20;99.90;;;;;;6342213;22;20011;-83
2022/06/26 08:16:16;;;;;;;9.95;6.43;;;18.30;99.90;;;;;;6314343;22;20095;-84
2022/06/26 08:18:42;;;;;;;11.35;6.82;;;18.50;99.90;;;;;;6341915;22;20011;-82
2022/06/26 08:23:53;;;;;;;10.40;6.40;;;18.70;99.90;;;;;;6341176;22;20011;-82
2022/06/26 08:26:18;;;;;;;9.00;6.65;;;18.80;99.90;;;;;;6341099;22;20014;-84
2022/06/26 08:28:44;;;;;;;11.05;7.97;;;19.00;99.90;;;;;;6287728;22;20340;-83
2022/06/26 08:31:10;;;;;;;9.90;6.63;;;19.00;99.90;;;;;;6313479;22;20332;-82
2022/06/26 08:33:35;;;;;;;7.57;4.70;;;19.00;99.90;;;;;;6313001;22;20019;-82
2022/06/26 08:36:01;;;;;;;6.88;4.13;;;18.90;99.90;;;;;;6341509;22;20047;-83
2022/06/26 08:38:27;;;;;;;4.15;3.13;;;18.80;99.90;;;;;;6313378;22;20042;-81
2022/06/26 08:40:53;;;;;;;4.95;3.20;;;18.80;99.90;;;;;;6340673;22;20509;-84
2022/06/26 08:43:22;;;;;;;5.47;3.25;;;18.80;99.90;;;;;;6314596;22;20014;-83
2022/06/26 08:45:50;;;;;;;7.60;5.07;;;18.90;99.90;;;;;;6341386;22;20015;-82
2022/06/26 08:48:20;;;;;;;6.95;3.97;;;19.00;99.90;;;;;;6313870;22;20037;-82
2022/06/26 08:50:46;;;;;;;6.25;3.78;;;19.10;99.90;;;;;;6287740;22;20018;-80
2022/06/26 08:53:15;;;;;;;6.80;4.75;;;19.20;99.90;;;;;;6313570;22;20019;-83
2022/06/26 08:55:42;;;;;;;8.65;4.35;;;19.30;99.90;;;;;;6287255;22;20014;-81
2022/06/26 08:58:09;;;;;;;7.25;4.55;;;19.40;99.90;;;;;;6312757;22;20022;-83
2022/06/26 09:00:35;;;;;;;7.97;4.28;;;19.40;99.90;;;;;;6312715;22;20049;-82
2022/06/26 09:03:01;;;;;;;6.90;4.63;;;19.50;99.90;;;;;;6287392;22;20007;-80
2022/06/26 09:05:27;;;;;;;7.70;4.75;;;19.60;99.90;;;;;;6341316;22;20011;-81
2022/06/26 09:07:53;;;;;;;7.43;5.57;;;19.80;99.90;;;;;;6340914;22;20346;-81
2022/06/26 09:10:20;;;;;;;8.80;5.22;;;19.90;99.90;;;;;;6313090;22;20081;-81
2022/06/26 09:12:54;;;;;;;6.25;4.60;;;19.90;99.90;;;;;;6340552;22;20514;-80
2022/06/26 09:15:21;;;;;;;9.00;4.88;;;19.80;99.90;;;;;;6313501;22;20017;-79
2022/06/26 09:18:02;;;;;;;9.75;4.57;;;19.60;99.90;;;;;;6340578;22;20007;-82
2022/06/26 09:20:30;;;;;;;8.00;3.88;;;19.70;99.90;;;;;;6313953;22;20015;-79
2022/06/26 09:22:57;;;;;;;8.75;4.70;;;19.80;99.90;;;;;;6340431;22;20314;-82
2022/06/26 09:25:37;;;;;;;9.50;4.60;;;19.90;99.90;;;;;;6340827;22;20011;-85
2022/06/26 09:28:18;;;;;;;5.90;3.08;;;19.90;99.90;;;;;;6312662;22;20006;-82
2022/06/26 09:30:51;;;;;;;5.97;4.68;;;19.90;99.90;;;;;;6314004;22;20038;-80
2022/06/26 09:33:19;;;;;;;8.73;4.22;;;19.90;99.90;;;;;;6288337;22;20011;-84
2022/06/26 09:35:45;;;;;;;5.78;3.55;;;20.00;99.90;;;;;;6340535;22;20003;-84
2022/06/26 09:38:16;;;;;;;8.63;3.95;;;20.00;99.90;;;;;;6287206;22;20083;-82
2022/06/26 09:40:47;;;;;;;6.53;3.83;;;19.90;99.90;;;;;;6340589;22;20006;-84
2022/06/26 09:43:16;;;;;;;9.80;4.97;;;20.00;99.90;;;;;;6286674;22;20436;-81
2022/06/26 09:45:42;;;;;;;6.13;4.20;;;20.10;99.90;;;;;;6286846;22;20093;-83
2022/06/26 09:48:09;;;;;;;8.23;3.75;;;20.10;99.90;;;;;;6312895;22;20071;-84
2022/06/26 09:50:35;;;;;;;6.10;2.75;;;20.20;99.90;;;;;;6313190;22;20014;-83
2022/06/26 09:53:04;;;;;;;6.47;2.92;;;20.30;99.90;;;;;;6340727;22;20006;-83
2022/06/26 09:55:30;;;;;;;6.90;3.72;;;20.50;99.90;;;;;;6312896;22;20090;-83
2022/06/26 09:57:57;;;;;;;5.68;2.88;;;20.70;99.90;;;;;;6313155;22;20011;-83
2022/06/26 10:00:23;;;;;;;5.00;3.00;;;20.80;99.90;;;;;;6287113;22;20050;-83
2022/06/26 10:08:21;;;;;;;5.43;3.10;;;20.80;99.90;;;;;;6312942;22;20529;-80
2022/06/26 10:10:48;;;;;;;5.47;2.83;;;20.80;99.90;;;;;;6340200;22;20468;-82
2022/06/26 10:13:14;;;;;;;5.78;3.10;;;20.90;99.90;;;;;;6340668;22;20010;-81
2022/06/26 10:16:07;;;;;;;6.40;2.75;;;20.90;99.90;;;;;;6286926;22;20036;-83
2022/06/26 10:18:45;;;;;;;8.32;2.50;;;20.90;99.90;;;;;;6340108;22;20003;-84
2022/06/26 10:21:13;;;;;;;5.65;2.60;;;21.00;99.90;;;;;;6286733;22;20093;-81
2022/06/26 10:23:40;;;;;;;6.88;2.70;;;21.10;99.90;;;;;;6286486;22;20098;-83
2022/06/26 10:26:18;;;;;;;5.57;2.60;;;21.10;99.90;;;;;;6286568;22;20019;-82
2022/06/26 10:29:02;;;;;;;4.72;2.97;;;21.10;99.90;;;;;;6312665;22;20059;-82
2022/06/26 10:31:52;;;;;;;7.75;2.55;;;21.10;99.90;;;;;;6282432;22;20014;-81
2022/06/26 10:35:08;;;;;;;;;;;;;;;;;;;;;
2022/06/26 10:38:31;;;;;;;6.43;3.38;;;20.90;99.90;;;;;;6305688;22;20110;-85
2022/06/26 10:44:33;;;;;;;6.85;3.60;;;20.80;99.90;;;;;;6306857;22;20019;-80
2022/06/26 10:47:26;;;;;;;;;;;;;;;;;;;;;
2022/06/26 10:50:45;;;;;;;;;;;21.00;99.90;;;;;;6309588;22;20053;-82
2022/06/26 11:07:23;;;;;;;6.50;3.40;;;21.20;99.90;;;;;;6185408;23;20021;-82
2022/06/26 11:10:33;;;;;;;7.72;3.80;;;21.30;99.90;;;;;;6132686;23;20028;-85
2022/06/26 11:14:10;;;;;;;6.60;3.38;;;21.20;99.90;;;;;;6185424;23;20586;-83
2022/06/26 11:24:11;;;;;;;;;;;;;;;;;;;;;
2022/06/26 11:35:29;;;;;;;9.10;3.80;;;21.10;99.90;;;;;;6307017;22;20076;-83
2022/06/26 11:38:50;;;;;;;5.18;3.38;;;21.10;99.90;;;;;;6313984;22;20397;-83
2022/06/26 11:42:50;;;;;;;6.53;3.85;;;21.10;99.90;;;;;;6185151;23;20024;-84
2022/06/26 11:53:43;;;;;;;;;;;;;;;;;;;;;
2022/06/26 11:56:27;;;;;;;6.68;4.07;;;21.30;99.90;;;;;;6191600;23;20009;-82
2022/06/26 11:59:42;;;;;;;7.70;4.43;;;21.30;99.90;;;;;;6165983;23;20020;-83
2022/06/26 12:07:21;;;;;;;5.93;3.42;;;21.20;99.90;;;;;;6340387;22;20015;-81
2022/06/26 12:10:23;;;;;;;5.88;2.80;;;21.30;99.90;;;;;;6313315;22;20332;-83
2022/06/26 12:13:00;;;;;;;4.65;2.17;;;21.20;99.90;;;;;;6309544;22;20111;-82
2022/06/26 12:30:01;;;;;;;5.85;3.33;;;21.10;99.90;;;;;;6186419;23;20028;-84
2022/06/26 12:36:37;;;;;;;5.53;3.40;;;21.00;99.90;;;;;;6308230;22;20023;-81
2022/06/26 12:40:08;;;;;;;;;;;;;;;;;;;;;
2022/06/26 12:49:45;;;;;;;4.47;2.97;;;21.30;99.90;;;;;;6372351;22;20017;-82
2022/06/26 12:52:55;;;;;;;7.60;3.40;;;21.20;99.90;;;;;;6285249;22;20031;-83
2022/06/26 12:56:07;;;;;;;5.97;2.90;;;21.10;99.90;;;;;;6251488;22;20024;-81
2022/06/26 12:59:34;;;;;;;5.57;2.78;;;20.90;99.90;;;;;;6278007;22;20016;-83
2022/06/26 13:02:21;;;;;;;4.97;2.92;;;20.80;99.90;;;;;;6260180;22;20011;-82
2022/06/26 13:04:51;;;;;;;6.65;3.10;;;20.80;99.90;;;;;;6225725;22;20053;-83
2022/06/26 13:08:14;;;;;;;;;;;;;;;;;;;;;
2022/06/26 18:38:47;;;;;;;5.57;2.58;;;19.80;99.90;;;;;;6300094;22;20102;-82
2022/06/26 18:41:43;;;;;;;5.35;2.30;;;19.80;99.90;;;;;;6251006;22;20032;-82
2022/06/26 18:57:02;;;;;;;;;;;;;;;;;;;;;
2022/06/26 19:29:23;;;;;;;7.60;2.70;;;19.20;99.90;;;;;;6039794;23;20014;-82
2022/06/26 19:46:40;;;;;;;6.78;2.63;;;19.00;99.90;;;;;;6123747;23;20051;-79
2022/06/26 19:52:49;;;;;;;;;;;;;;;;;;;;;
2022/06/26 19:59:10;;;;;;;6.63;2.40;;;18.90;99.90;;;;;;6066155;23;20319;-82
2022/06/26 20:01:36;;;;;;;5.75;2.67;;;18.90;99.90;;;;;;6165504;23;20059;-82
2022/06/26 20:04:03;;;;;;;7.80;3.00;;;18.80;99.90;;;;;;6165975;23;20020;-82
2022/06/26 20:06:29;;;;;;;6.32;2.60;;;18.80;99.90;;;;;;6215011;23;20331;-81
2022/06/26 20:08:55;;;;;;;7.65;3.08;;;18.80;99.90;;;;;;6190547;23;20050;-82
2022/06/26 20:11:21;;;;;;;6.80;2.80;;;18.80;99.90;;;;;;6190395;23;20028;-82
2022/06/26 20:13:47;;;;;;;6.68;2.80;;;18.80;99.90;;;;;;6222871;22;20403;-81
2022/06/26 20:16:15;;;;;;;6.78;2.95;;;18.70;99.90;;;;;;6227568;22;20398;-82
2022/06/26 20:18:41;;;;;;;9.52;3.70;;;18.70;99.90;;;;;;6253149;22;20279;-80
2022/06/26 20:21:07;;;;;;;5.65;3.80;;;18.70;99.90;;;;;;6227746;22;20054;-81
2022/06/26 20:23:33;;;;;;;10.50;4.70;;;18.60;99.90;;;;;;6278947;22;20008;-80
2022/06/26 20:25:58;;;;;;;8.35;4.28;;;18.50;99.90;;;;;;6279005;22;20039;-81
2022/06/26 20:28:24;;;;;;;8.43;4.00;;;18.50;99.90;;;;;;6276896;22;20030;-82
2022/06/26 20:30:50;;;;;;;5.70;3.40;;;18.50;99.90;;;;;;6251126;22;20287;-81
2022/06/26 20:33:15;;;;;;;8.95;3.63;;;18.40;99.90;;;;;;6226444;22;20022;-81
2022/06/26 20:35:42;;;;;;;10.38;4.10;;;18.40;99.90;;;;;;6277137;22;20027;-83
2022/06/26 20:38:08;;;;;;;8.02;3.33;;;18.40;99.90;;;;;;6251878;22;20062;-82
2022/06/26 20:40:33;;;;;;;6.88;3.45;;;18.40;99.90;;;;;;6278825;22;20357;-82
2022/06/26 20:42:59;;;;;;;6.32;3.22;;;18.40;99.90;;;;;;6279126;22;20011;-81
2022/06/26 20:45:25;;;;;;;5.40;2.90;;;18.40;99.90;;;;;;6227911;22;20012;-81
2022/06/26 20:47:52;;;;;;;6.85;3.20;;;18.40;99.90;;;;;;6226516;22;20019;-80
2022/06/26 20:50:20;;;;;;;5.55;2.90;;;18.40;99.90;;;;;;6227084;22;20008;-82
2022/06/26 20:52:45;;;;;;;4.60;2.72;;;18.30;99.90;;;;;;6226604;22;20337;-82
2022/06/26 20:55:12;;;;;;;7.57;3.00;;;18.30;99.90;;;;;;6277703;22;20076;-82
2022/06/26 20:57:38;;;;;;;6.78;2.85;;;18.30;99.90;;;;;;6226873;22;20015;-82
2022/06/26 21:00:05;;;;;;;7.85;3.50;;;18.30;99.90;;;;;;6251730;22;20017;-82
2022/06/26 21:02:31;;;;;;;5.13;2.80;;;18.30;99.90;;;;;;6225796;22;20068;-80
2022/06/26 21:04:57;;;;;;;5.35;2.88;;;18.20;99.90;;;;;;6277302;22;20011;-83
2022/06/26 21:07:23;;;;;;;6.10;3.00;;;18.20;99.90;;;;;;6251348;22;20016;-81
2022/06/26 21:09:50;;;;;;;10.00;2.97;;;18.20;99.90;;;;;;6251591;22;20011;-81
2022/06/26 21:12:16;;;;;;;6.50;3.28;;;18.20;99.90;;;;;;6250853;22;20089;-79
2022/06/26 21:14:45;;;;;;;6.43;3.88;;;18.10;99.90;;;;;;6276152;22;20027;-83
2022/06/26 21:17:11;;;;;;;4.93;3.47;;;18.10;99.90;;;;;;6227380;22;20293;-81
2022/06/26 21:19:37;;;;;;;6.45;3.85;;;18.10;99.90;;;;;;6225731;22;20011;-82
2022/06/26 21:22:05;;;;;;;5.93;4.00;;;18.10;99.90;;;;;;6251275;22;20061;-82
2022/06/26 21:24:34;;;;;;;7.60;3.40;;;18.00;99.90;;;;;;6251259;22;20062;-83
2022/06/26 21:27:04;;;;;;;7.28;3.65;;;18.00;99.90;;;;;;6226523;22;20018;-82
2022/06/26 21:29:30;;;;;;;6.32;3.53;;;18.00;99.90;;;;;;6250982;22;20015;-82
2022/06/26 21:31:56;;;;;;;6.18;3.30;;;17.90;99.90;;;;;;6226196;22;20018;-82
2022/06/26 21:34:21;;;;;;;5.60;3.50;;;17.90;99.90;;;;;;6277038;22;20341;-82
2022/06/26 21:36:47;;;;;;;6.35;3.17;;;17.90;99.90;;;;;;6226051;22;20356;-81
2022/06/26 21:39:13;;;;;;;5.50;3.20;;;17.80;99.90;;;;;;6225261;22;20020;-80
2022/06/26 21:41:39;;;;;;;9.70;3.72;;;17.80;99.90;;;;;;6251562;22;20016;-81
2022/06/26 21:44:04;;;;;;;6.53;3.20;;;17.70;99.90;;;;;;6277791;22;20133;-82
2022/06/26 21:46:30;;;;;;;7.70;3.17;;;17.70;99.90;;;;;;6227071;22;20088;-81
2022/06/26 21:48:56;;;;;;;6.10;3.42;;;17.70;99.90;;;;;;6251386;22;20086;-83
2022/06/26 21:51:22;;;;;;;5.30;3.97;;;17.70;99.90;;;;;;6251333;22;20030;-81
2022/06/26 21:53:47;;;;;;;6.47;3.95;;;17.70;99.90;;;;;;6226114;22;20094;-82
2022/06/26 21:56:13;;;;;;;7.03;3.70;;;17.70;99.90;;;;;;6226289;22;20019;-81
2022/06/26 21:58:39;;;;;;;5.22;3.72;;;17.60;99.90;;;;;;6225509;22;20016;-81
2022/06/26 22:01:05;;;;;;;7.63;4.20;;;17.60;99.90;;;;;;6225081;22;20016;-82
2022/06/26 22:03:31;;;;;;;7.90;3.92;;;17.50;99.90;;;;;;6276617;22;20015;-81
2022/06/26 22:05:58;;;;;;;6.47;3.70;;;17.50;99.90;;;;;;6251312;22;20082;-82
2022/06/26 22:08:24;;;;;;;7.57;4.20;;;17.50;99.90;;;;;;6225456;22;20042;-83
2022/06/26 22:10:50;;;;;;;7.22;4.10;;;17.50;99.90;;;;;;6225975;22;20057;-82
2022/06/26 22:13:16;;;;;;;7.88;4.18;;;17.50;99.90;;;;;;6226095;22;20023;-82
